sensor_id;sensor_type;location;lat;lon;timestamp;temperature;humidity
11140;DHT22;5624;49.388;11.350;2023-05-07T00:01:06;12.20;77.00
11140;DHT22;5624;49.388;11.350;2023-05-07T00:03:32;12.10;77.20
11140;DHT22;5624;49.388;11.350;2023-05-07T00:05:58;12.20;76.80
11140;DHT22;5624;49.388;11.350;2023-05-07T00:08:24;12.10;77.20
11140;DHT22;5624;49.388;11.350;2023-05-07T00:10:49;12.10;77.30
11140;DHT22;5624;49.388;11.350;2023-05-07T00:13:15;12.10;77.60
11140;DHT22;5624;49.388;11.350;2023-05-07T00:15:41;12.10;77.30
11140;DHT22;5624;49.388;11.350;2023-05-07T00:18:06;12.10;77.20
11140;DHT22;5624;49.388;11.350;2023-05-07T00:20:32;12.10;77.40
11140;DHT22;5624;49.388;11.350;2023-05-07T00:22:57;12.00;77.70
11140;DHT22;5624;49.388;11.350;2023-05-07T00:25:23;12.00;77.70
11140;DHT22;5624;49.388;11.350;2023-05-07T00:27:49;12.10;77.70
11140;DHT22;5624;49.388;11.350;2023-05-07T00:30:14;12.00;77.70
11140;DHT22;5624;49.388;11.350;2023-05-07T00:32:40;12.20;77.10
11140;DHT22;5624;49.388;11.350;2023-05-07T00:35:06;12.20;76.80
11140;DHT22;5624;49.388;11.350;2023-05-07T00:37:32;12.20;77.10
11140;DHT22;5624;49.388;11.350;2023-05-07T00:39:58;12.30;76.80
11140;DHT22;5624;49.388;11.350;2023-05-07T00:42:23;12.40;76.40
11140;DHT22;5624;49.388;11.350;2023-05-07T00:44:49;12.50;75.90
11140;DHT22;5624;49.388;11.350;2023-05-07T00:47:15;12.60;75.60
11140;DHT22;5624;49.388;11.350;2023-05-07T00:49:43;12.50;75.60
11140;DHT22;5624;49.388;11.350;2023-05-07T00:52:14;12.50;75.90
11140;DHT22;5624;49.388;11.350;2023-05-07T00:54:42;12.40;76.60
11140;DHT22;5624;49.388;11.350;2023-05-07T00:57:09;12.30;76.70
11140;DHT22;5624;49.388;11.350;2023-05-07T00:59:36;12.20;77.10
11140;DHT22;5624;49.388;11.350;2023-05-07T01:02:02;12.20;77.10
11140;DHT22;5624;49.388;11.350;2023-05-07T01:04:27;12.20;77.30
11140;DHT22;5624;49.388;11.350;2023-05-07T01:06:55;12.20;77.40
11140;DHT22;5624;49.388;11.350;2023-05-07T01:09:22;12.20;77.70
11140;DHT22;5624;49.388;11.350;2023-05-07T01:11:49;12.20;77.80
11140;DHT22;5624;49.388;11.350;2023-05-07T01:14:16;12.20;78.00
11140;DHT22;5624;49.388;11.350;2023-05-07T01:16:42;12.20;77.70
11140;DHT22;5624;49.388;11.350;2023-05-07T01:19:11;12.20;77.70
11140;DHT22;5624;49.388;11.350;2023-05-07T01:21:45;12.30;77.80
11140;DHT22;5624;49.388;11.350;2023-05-07T01:24:11;12.40;77.20
11140;DHT22;5624;49.388;11.350;2023-05-07T01:26:39;12.30;77.40
11140;DHT22;5624;49.388;11.350;2023-05-07T01:29:05;12.30;77.40
11140;DHT22;5624;49.388;11.350;2023-05-07T01:31:33;12.40;77.30
11140;DHT22;5624;49.388;11.350;2023-05-07T01:34:01;12.40;77.50
11140;DHT22;5624;49.388;11.350;2023-05-07T01:36:28;12.40;77.60
11140;DHT22;5624;49.388;11.350;2023-05-07T01:38:54;12.30;77.70
11140;DHT22;5624;49.388;11.350;2023-05-07T01:41:20;12.30;77.80
11140;DHT22;5624;49.388;11.350;2023-05-07T01:43:46;12.30;78.00
11140;DHT22;5624;49.388;11.350;2023-05-07T01:46:12;12.20;77.80
11140;DHT22;5624;49.388;11.350;2023-05-07T01:48:39;12.30;77.80
11140;DHT22;5624;49.388;11.350;2023-05-07T01:51:05;12.30;77.50
11140;DHT22;5624;49.388;11.350;2023-05-07T01:53:39;12.40;77.40
11140;DHT22;5624;49.388;11.350;2023-05-07T01:56:06;12.40;77.00
11140;DHT22;5624;49.388;11.350;2023-05-07T01:58:31;12.50;76.90
11140;DHT22;5624;49.388;11.350;2023-05-07T02:00:57;12.40;77.30
11140;DHT22;5624;49.388;11.350;2023-05-07T02:03:23;12.40;77.60
11140;DHT22;5624;49.388;11.350;2023-05-07T02:05:48;12.40;77.60
11140;DHT22;5624;49.388;11.350;2023-05-07T02:08:14;12.30;77.60
11140;DHT22;5624;49.388;11.350;2023-05-07T02:10:39;12.40;77.60
11140;DHT22;5624;49.388;11.350;2023-05-07T02:13:05;12.30;78.10
11140;DHT22;5624;49.388;11.350;2023-05-07T02:15:31;12.30;77.90
11140;DHT22;5624;49.388;11.350;2023-05-07T02:18:03;12.30;78.10
11140;DHT22;5624;49.388;11.350;2023-05-07T02:20:29;12.40;77.50
11140;DHT22;5624;49.388;11.350;2023-05-07T02:22:55;12.30;77.80
11140;DHT22;5624;49.388;11.350;2023-05-07T02:25:20;12.40;78.00
11140;DHT22;5624;49.388;11.350;2023-05-07T02:27:46;12.30;77.70
11140;DHT22;5624;49.388;11.350;2023-05-07T02:30:12;12.30;77.80
11140;DHT22;5624;49.388;11.350;2023-05-07T02:32:37;12.30;78.00
11140;DHT22;5624;49.388;11.350;2023-05-07T02:35:03;12.20;78.20
11140;DHT22;5624;49.388;11.350;2023-05-07T02:37:29;12.20;78.30
11140;DHT22;5624;49.388;11.350;2023-05-07T02:39:54;12.20;78.40
11140;DHT22;5624;49.388;11.350;2023-05-07T02:42:20;12.20;78.70
11140;DHT22;5624;49.388;11.350;2023-05-07T02:44:45;12.20;78.50
11140;DHT22;5624;49.388;11.350;2023-05-07T02:47:13;12.10;79.00
11140;DHT22;5624;49.388;11.350;2023-05-07T02:49:38;12.10;79.20
11140;DHT22;5624;49.388;11.350;2023-05-07T02:52:04;12.10;78.80
11140;DHT22;5624;49.388;11.350;2023-05-07T02:54:30;12.00;79.40
11140;DHT22;5624;49.388;11.350;2023-05-07T02:56:55;11.90;79.80
11140;DHT22;5624;49.388;11.350;2023-05-07T02:59:21;11.90;80.20
11140;DHT22;5624;49.388;11.350;2023-05-07T03:01:47;11.80;80.40
11140;DHT22;5624;49.388;11.350;2023-05-07T03:04:13;11.80;80.60
11140;DHT22;5624;49.388;11.350;2023-05-07T03:06:39;11.80;80.90
11140;DHT22;5624;49.388;11.350;2023-05-07T03:09:04;11.70;80.90
11140;DHT22;5624;49.388;11.350;2023-05-07T03:11:30;11.70;81.20
11140;DHT22;5624;49.388;11.350;2023-05-07T03:13:56;11.70;81.40
11140;DHT22;5624;49.388;11.350;2023-05-07T03:16:21;11.60;81.70
11140;DHT22;5624;49.388;11.350;2023-05-07T03:18:47;11.60;81.90
11140;DHT22;5624;49.388;11.350;2023-05-07T03:21:12;11.60;82.10
11140;DHT22;5624;49.388;11.350;2023-05-07T03:23:38;11.50;82.30
11140;DHT22;5624;49.388;11.350;2023-05-07T03:26:04;11.50;82.70
11140;DHT22;5624;49.388;11.350;2023-05-07T03:28:29;11.40;82.70
11140;DHT22;5624;49.388;11.350;2023-05-07T03:30:55;11.40;82.80
11140;DHT22;5624;49.388;11.350;2023-05-07T03:33:20;11.50;82.80
11140;DHT22;5624;49.388;11.350;2023-05-07T03:35:46;11.40;83.20
11140;DHT22;5624;49.388;11.350;2023-05-07T03:38:11;11.40;83.10
11140;DHT22;5624;49.388;11.350;2023-05-07T03:40:37;11.40;83.30
11140;DHT22;5624;49.388;11.350;2023-05-07T03:43:03;11.40;83.20
11140;DHT22;5624;49.388;11.350;2023-05-07T03:45:28;11.30;83.50
11140;DHT22;5624;49.388;11.350;2023-05-07T03:47:54;11.30;84.00
11140;DHT22;5624;49.388;11.350;2023-05-07T03:50:19;11.20;84.10
11140;DHT22;5624;49.388;11.350;2023-05-07T03:52:45;11.10;84.60
11140;DHT22;5624;49.388;11.350;2023-05-07T03:55:11;11.10;84.50
11140;DHT22;5624;49.388;11.350;2023-05-07T03:57:36;11.10;84.60
11140;DHT22;5624;49.388;11.350;2023-05-07T04:00:02;11.00;85.30
11140;DHT22;5624;49.388;11.350;2023-05-07T04:02:29;11.10;85.20
11140;DHT22;5624;49.388;11.350;2023-05-07T04:04:55;11.00;85.40
11140;DHT22;5624;49.388;11.350;2023-05-07T04:07:21;11.10;85.20
11140;DHT22;5624;49.388;11.350;2023-05-07T04:09:47;11.10;85.30
11140;DHT22;5624;49.388;11.350;2023-05-07T04:12:12;11.10;85.40
11140;DHT22;5624;49.388;11.350;2023-05-07T04:14:38;11.10;85.30
11140;DHT22;5624;49.388;11.350;2023-05-07T04:17:03;11.10;85.40
11140;DHT22;5624;49.388;11.350;2023-05-07T04:19:29;11.10;85.50
11140;DHT22;5624;49.388;11.350;2023-05-07T04:21:54;11.10;85.50
11140;DHT22;5624;49.388;11.350;2023-05-07T04:24:21;11.10;85.50
11140;DHT22;5624;49.388;11.350;2023-05-07T04:26:46;11.10;85.70
11140;DHT22;5624;49.388;11.350;2023-05-07T04:29:12;11.10;85.60
11140;DHT22;5624;49.388;11.350;2023-05-07T04:31:37;11.20;85.70
11140;DHT22;5624;49.388;11.350;2023-05-07T04:34:03;11.20;85.60
11140;DHT22;5624;49.388;11.350;2023-05-07T04:36:29;11.20;85.20
11140;DHT22;5624;49.388;11.350;2023-05-07T04:38:55;11.30;84.90
11140;DHT22;5624;49.388;11.350;2023-05-07T04:41:21;11.40;84.90
11140;DHT22;5624;49.388;11.350;2023-05-07T04:43:46;11.60;84.10
11140;DHT22;5624;49.388;11.350;2023-05-07T04:46:12;11.70;83.20
11140;DHT22;5624;49.388;11.350;2023-05-07T04:48:37;11.80;82.90
11140;DHT22;5624;49.388;11.350;2023-05-07T04:51:03;11.90;82.60
11140;DHT22;5624;49.388;11.350;2023-05-07T04:53:28;12.00;82.30
11140;DHT22;5624;49.388;11.350;2023-05-07T04:55:56;12.00;82.50
11140;DHT22;5624;49.388;11.350;2023-05-07T04:58:24;12.20;81.40
11140;DHT22;5624;49.388;11.350;2023-05-07T05:00:50;12.30;81.40
11140;DHT22;5624;49.388;11.350;2023-05-07T05:03:16;12.40;80.30
11140;DHT22;5624;49.388;11.350;2023-05-07T05:05:41;12.30;80.60
11140;DHT22;5624;49.388;11.350;2023-05-07T05:08:07;12.50;80.40
11140;DHT22;5624;49.388;11.350;2023-05-07T05:10:33;12.60;80.00
11140;DHT22;5624;49.388;11.350;2023-05-07T05:12:58;12.60;79.90
11140;DHT22;5624;49.388;11.350;2023-05-07T05:15:24;12.70;79.30
11140;DHT22;5624;49.388;11.350;2023-05-07T05:17:50;12.70;78.80
11140;DHT22;5624;49.388;11.350;2023-05-07T05:20:15;12.70;79.20
11140;DHT22;5624;49.388;11.350;2023-05-07T05:22:42;12.70;79.40
11140;DHT22;5624;49.388;11.350;2023-05-07T05:25:07;12.80;78.40
11140;DHT22;5624;49.388;11.350;2023-05-07T05:27:34;12.90;78.60
11140;DHT22;5624;49.388;11.350;2023-05-07T05:30:01;13.00;78.00
11140;DHT22;5624;49.388;11.350;2023-05-07T05:32:26;13.10;77.30
11140;DHT22;5624;49.388;11.350;2023-05-07T05:34:52;13.10;77.60
11140;DHT22;5624;49.388;11.350;2023-05-07T05:37:17;13.30;76.60
11140;DHT22;5624;49.388;11.350;2023-05-07T05:39:43;13.40;76.10
11140;DHT22;5624;49.388;11.350;2023-05-07T05:42:09;13.40;76.10
11140;DHT22;5624;49.388;11.350;2023-05-07T05:44:35;13.60;75.40
11140;DHT22;5624;49.388;11.350;2023-05-07T05:47:00;13.80;74.00
11140;DHT22;5624;49.388;11.350;2023-05-07T05:49:26;14.10;73.50
11140;DHT22;5624;49.388;11.350;2023-05-07T05:51:51;14.60;72.30
11140;DHT22;5624;49.388;11.350;2023-05-07T05:54:17;14.90;70.20
11140;DHT22;5624;49.388;11.350;2023-05-07T05:56:43;15.00;69.60
11140;DHT22;5624;49.388;11.350;2023-05-07T05:59:08;15.20;70.00
11140;DHT22;5624;49.388;11.350;2023-05-07T06:01:34;15.40;69.20
11140;DHT22;5624;49.388;11.350;2023-05-07T06:04:00;15.40;68.90
11140;DHT22;5624;49.388;11.350;2023-05-07T06:06:25;15.60;68.10
11140;DHT22;5624;49.388;11.350;2023-05-07T06:08:51;15.40;67.50
11140;DHT22;5624;49.388;11.350;2023-05-07T06:11:16;15.30;67.80
11140;DHT22;5624;49.388;11.350;2023-05-07T06:13:42;15.10;69.50
11140;DHT22;5624;49.388;11.350;2023-05-07T06:16:08;15.00;69.10
11140;DHT22;5624;49.388;11.350;2023-05-07T06:18:33;14.70;70.10
11140;DHT22;5624;49.388;11.350;2023-05-07T06:21:01;14.60;70.70
11140;DHT22;5624;49.388;11.350;2023-05-07T06:23:27;14.50;70.60
11140;DHT22;5624;49.388;11.350;2023-05-07T06:25:52;14.60;70.70
11140;DHT22;5624;49.388;11.350;2023-05-07T06:28:18;14.70;70.70
11140;DHT22;5624;49.388;11.350;2023-05-07T06:30:44;14.70;70.90
11140;DHT22;5624;49.388;11.350;2023-05-07T06:33:10;14.80;70.40
11140;DHT22;5624;49.388;11.350;2023-05-07T06:35:36;14.90;70.10
11140;DHT22;5624;49.388;11.350;2023-05-07T06:38:01;15.00;70.30
11140;DHT22;5624;49.388;11.350;2023-05-07T06:40:27;15.00;69.70
11140;DHT22;5624;49.388;11.350;2023-05-07T06:42:53;14.60;70.40
11140;DHT22;5624;49.388;11.350;2023-05-07T06:45:19;14.70;71.20
11140;DHT22;5624;49.388;11.350;2023-05-07T06:47:45;15.00;70.70
11140;DHT22;5624;49.388;11.350;2023-05-07T06:50:11;15.10;70.00
11140;DHT22;5624;49.388;11.350;2023-05-07T06:52:38;15.10;69.40
11140;DHT22;5624;49.388;11.350;2023-05-07T06:55:04;15.10;70.40
11140;DHT22;5624;49.388;11.350;2023-05-07T06:57:30;15.10;70.10
11140;DHT22;5624;49.388;11.350;2023-05-07T06:59:55;15.40;69.80
11140;DHT22;5624;49.388;11.350;2023-05-07T07:02:21;15.50;68.80
11140;DHT22;5624;49.388;11.350;2023-05-07T07:04:47;15.40;68.50
11140;DHT22;5624;49.388;11.350;2023-05-07T07:07:12;15.20;69.40
11140;DHT22;5624;49.388;11.350;2023-05-07T07:09:38;15.30;69.50
11140;DHT22;5624;49.388;11.350;2023-05-07T07:12:04;15.30;69.50
11140;DHT22;5624;49.388;11.350;2023-05-07T07:14:29;15.60;68.70
11140;DHT22;5624;49.388;11.350;2023-05-07T07:16:55;15.60;68.60
11140;DHT22;5624;49.388;11.350;2023-05-07T07:19:20;15.90;67.80
11140;DHT22;5624;49.388;11.350;2023-05-07T07:21:46;16.30;66.10
11140;DHT22;5624;49.388;11.350;2023-05-07T07:24:13;16.80;65.30
11140;DHT22;5624;49.388;11.350;2023-05-07T07:26:44;17.10;64.90
11140;DHT22;5624;49.388;11.350;2023-05-07T07:29:10;17.20;64.40
11140;DHT22;5624;49.388;11.350;2023-05-07T07:31:35;17.30;62.30
11140;DHT22;5624;49.388;11.350;2023-05-07T07:34:01;17.30;63.80
11140;DHT22;5624;49.388;11.350;2023-05-07T07:36:26;17.80;60.60
11140;DHT22;5624;49.388;11.350;2023-05-07T07:38:53;18.60;59.20
11140;DHT22;5624;49.388;11.350;2023-05-07T07:41:18;19.00;57.30
11140;DHT22;5624;49.388;11.350;2023-05-07T07:43:44;18.80;57.40
11140;DHT22;5624;49.388;11.350;2023-05-07T07:46:12;18.80;57.10
11140;DHT22;5624;49.388;11.350;2023-05-07T07:48:37;18.10;59.60
11140;DHT22;5624;49.388;11.350;2023-05-07T07:51:03;17.90;60.20
11140;DHT22;5624;49.388;11.350;2023-05-07T07:53:29;18.20;60.70
11140;DHT22;5624;49.388;11.350;2023-05-07T07:55:54;19.20;58.20
11140;DHT22;5624;49.388;11.350;2023-05-07T07:58:20;19.90;55.20
11140;DHT22;5624;49.388;11.350;2023-05-07T08:00:47;19.60;54.90
11140;DHT22;5624;49.388;11.350;2023-05-07T08:03:13;19.20;55.10
11140;DHT22;5624;49.388;11.350;2023-05-07T08:05:39;18.90;56.90
11140;DHT22;5624;49.388;11.350;2023-05-07T08:08:05;18.50;58.30
11140;DHT22;5624;49.388;11.350;2023-05-07T08:10:31;18.50;58.40
11140;DHT22;5624;49.388;11.350;2023-05-07T08:13:00;18.50;58.90
11140;DHT22;5624;49.388;11.350;2023-05-07T08:15:25;18.50;59.30
11140;DHT22;5624;49.388;11.350;2023-05-07T08:17:51;18.50;59.70
11140;DHT22;5624;49.388;11.350;2023-05-07T08:20:17;18.70;58.40
11140;DHT22;5624;49.388;11.350;2023-05-07T08:22:42;18.70;58.70
11140;DHT22;5624;49.388;11.350;2023-05-07T08:25:08;18.80;58.90
11140;DHT22;5624;49.388;11.350;2023-05-07T08:27:34;18.80;58.70
11140;DHT22;5624;49.388;11.350;2023-05-07T08:29:59;18.50;59.80
11140;DHT22;5624;49.388;11.350;2023-05-07T08:32:25;18.70;58.60
11140;DHT22;5624;49.388;11.350;2023-05-07T08:34:51;18.90;58.40
11140;DHT22;5624;49.388;11.350;2023-05-07T08:37:16;18.80;57.20
11140;DHT22;5624;49.388;11.350;2023-05-07T08:39:42;18.70;56.80
11140;DHT22;5624;49.388;11.350;2023-05-07T08:42:09;19.10;56.40
11140;DHT22;5624;49.388;11.350;2023-05-07T08:44:38;18.90;57.20
11140;DHT22;5624;49.388;11.350;2023-05-07T08:47:06;19.60;56.00
11140;DHT22;5624;49.388;11.350;2023-05-07T08:49:33;20.10;54.70
11140;DHT22;5624;49.388;11.350;2023-05-07T08:51:59;20.10;53.80
11140;DHT22;5624;49.388;11.350;2023-05-07T08:54:26;20.00;54.40
11140;DHT22;5624;49.388;11.350;2023-05-07T08:56:53;20.10;53.70
11140;DHT22;5624;49.388;11.350;2023-05-07T08:59:18;20.20;54.10
11140;DHT22;5624;49.388;11.350;2023-05-07T09:01:44;20.50;53.00
11140;DHT22;5624;49.388;11.350;2023-05-07T09:04:10;21.10;53.20
11140;DHT22;5624;49.388;11.350;2023-05-07T09:06:35;21.20;51.20
11140;DHT22;5624;49.388;11.350;2023-05-07T09:09:03;21.40;52.50
11140;DHT22;5624;49.388;11.350;2023-05-07T09:11:30;21.50;51.50
11140;DHT22;5624;49.388;11.350;2023-05-07T09:13:57;22.30;47.90
11140;DHT22;5624;49.388;11.350;2023-05-07T09:16:30;21.70;49.90
11140;DHT22;5624;49.388;11.350;2023-05-07T09:18:58;21.30;50.80
11140;DHT22;5624;49.388;11.350;2023-05-07T09:21:25;21.40;51.60
11140;DHT22;5624;49.388;11.350;2023-05-07T09:23:52;22.20;49.50
11140;DHT22;5624;49.388;11.350;2023-05-07T09:26:18;22.70;49.10
11140;DHT22;5624;49.388;11.350;2023-05-07T09:28:46;22.50;48.10
11140;DHT22;5624;49.388;11.350;2023-05-07T09:31:12;22.60;48.70
11140;DHT22;5624;49.388;11.350;2023-05-07T09:33:38;22.50;48.40
11140;DHT22;5624;49.388;11.350;2023-05-07T09:36:05;22.30;47.20
11140;DHT22;5624;49.388;11.350;2023-05-07T09:38:35;21.70;48.60
11140;DHT22;5624;49.388;11.350;2023-05-07T09:41:05;21.10;50.60
11140;DHT22;5624;49.388;11.350;2023-05-07T09:43:32;20.90;51.80
11140;DHT22;5624;49.388;11.350;2023-05-07T09:46:24;20.90;53.50
11140;DHT22;5624;49.388;11.350;2023-05-07T09:48:52;21.40;52.30
11140;DHT22;5624;49.388;11.350;2023-05-07T09:51:39;21.90;49.70
11140;DHT22;5624;49.388;11.350;2023-05-07T09:54:05;21.30;50.90
11140;DHT22;5624;49.388;11.350;2023-05-07T09:56:32;21.50;50.80
11140;DHT22;5624;49.388;11.350;2023-05-07T09:59:00;21.60;50.10
11140;DHT22;5624;49.388;11.350;2023-05-07T10:01:26;21.40;51.00
11140;DHT22;5624;49.388;11.350;2023-05-07T10:03:52;21.70;50.10
11140;DHT22;5624;49.388;11.350;2023-05-07T10:06:20;21.90;49.40
11140;DHT22;5624;49.388;11.350;2023-05-07T10:08:46;22.60;49.60
11140;DHT22;5624;49.388;11.350;2023-05-07T10:11:12;23.60;47.90
11140;DHT22;5624;49.388;11.350;2023-05-07T10:13:39;24.30;44.30
11140;DHT22;5624;49.388;11.350;2023-05-07T10:16:05;24.50;44.90
11140;DHT22;5624;49.388;11.350;2023-05-07T10:18:31;24.10;43.00
11140;DHT22;5624;49.388;11.350;2023-05-07T10:21:13;23.40;44.70
11140;DHT22;5624;49.388;11.350;2023-05-07T10:23:46;23.30;45.20
11140;DHT22;5624;49.388;11.350;2023-05-07T10:26:15;23.10;46.10
11140;DHT22;5624;49.388;11.350;2023-05-07T10:29:01;23.20;45.90
11140;DHT22;5624;49.388;11.350;2023-05-07T10:31:36;23.20;45.40
11140;DHT22;5624;49.388;11.350;2023-05-07T10:34:13;23.50;47.10
11140;DHT22;5624;49.388;11.350;2023-05-07T10:36:42;23.40;45.80
11140;DHT22;5624;49.388;11.350;2023-05-07T10:39:08;23.60;44.40
11140;DHT22;5624;49.388;11.350;2023-05-07T10:41:35;23.40;46.10
11140;DHT22;5624;49.388;11.350;2023-05-07T10:44:00;23.50;45.80
11140;DHT22;5624;49.388;11.350;2023-05-07T10:46:27;24.30;45.20
11140;DHT22;5624;49.388;11.350;2023-05-07T10:51:32;25.00;43.00
11140;DHT22;5624;49.388;11.350;2023-05-07T10:56:39;24.90;41.80
11140;DHT22;5624;49.388;11.350;2023-05-07T11:01:59;23.50;45.50
11140;DHT22;5624;49.388;11.350;2023-05-07T11:04:25;23.30;46.20
11140;DHT22;5624;49.388;11.350;2023-05-07T11:15:07;23.60;45.40
11140;DHT22;5624;49.388;11.350;2023-05-07T11:17:33;24.30;44.60
11140;DHT22;5624;49.388;11.350;2023-05-07T11:20:01;25.10;45.80
11140;DHT22;5624;49.388;11.350;2023-05-07T11:25:02;25.90;39.50
11140;DHT22;5624;49.388;11.350;2023-05-07T11:27:28;25.20;40.40
11140;DHT22;5624;49.388;11.350;2023-05-07T11:29:54;24.80;41.20
11140;DHT22;5624;49.388;11.350;2023-05-07T11:32:28;24.80;42.80
11140;DHT22;5624;49.388;11.350;2023-05-07T11:34:54;24.70;39.20
11140;DHT22;5624;49.388;11.350;2023-05-07T11:37:22;24.80;41.30
11140;DHT22;5624;49.388;11.350;2023-05-07T11:39:48;24.80;39.50
11140;DHT22;5624;49.388;11.350;2023-05-07T11:42:29;24.60;39.60
11140;DHT22;5624;49.388;11.350;2023-05-07T11:44:55;24.10;39.70
11140;DHT22;5624;49.388;11.350;2023-05-07T11:47:21;24.00;40.10
11140;DHT22;5624;49.388;11.350;2023-05-07T11:49:48;24.40;38.00
11140;DHT22;5624;49.388;11.350;2023-05-07T11:52:14;24.10;40.50
11140;DHT22;5624;49.388;11.350;2023-05-07T11:54:40;24.80;42.80
11140;DHT22;5624;49.388;11.350;2023-05-07T11:57:06;24.90;39.80
11140;DHT22;5624;49.388;11.350;2023-05-07T11:59:39;24.80;38.80
11140;DHT22;5624;49.388;11.350;2023-05-07T12:02:10;24.50;40.80
11140;DHT22;5624;49.388;11.350;2023-05-07T12:04:37;24.10;41.10
11140;DHT22;5624;49.388;11.350;2023-05-07T12:07:03;24.10;39.80
11140;DHT22;5624;49.388;11.350;2023-05-07T12:12:04;24.50;39.10
11140;DHT22;5624;49.388;11.350;2023-05-07T12:14:30;23.90;41.30
11140;DHT22;5624;49.388;11.350;2023-05-07T12:17:01;23.30;42.90
11140;DHT22;5624;49.388;11.350;2023-05-07T12:19:31;22.90;43.80
11140;DHT22;5624;49.388;11.350;2023-05-07T12:21:57;22.70;45.60
11140;DHT22;5624;49.388;11.350;2023-05-07T12:24:23;22.20;45.80
11140;DHT22;5624;49.388;11.350;2023-05-07T12:26:49;21.80;46.40
11140;DHT22;5624;49.388;11.350;2023-05-07T12:29:15;21.60;47.20
11140;DHT22;5624;49.388;11.350;2023-05-07T12:31:43;21.40;47.60
11140;DHT22;5624;49.388;11.350;2023-05-07T12:34:11;21.50;48.30
11140;DHT22;5624;49.388;11.350;2023-05-07T12:36:38;21.70;46.70
11140;DHT22;5624;49.388;11.350;2023-05-07T12:39:05;21.70;45.90
11140;DHT22;5624;49.388;11.350;2023-05-07T12:41:36;21.60;47.10
11140;DHT22;5624;49.388;11.350;2023-05-07T12:44:17;21.50;45.60
11140;DHT22;5624;49.388;11.350;2023-05-07T12:46:42;21.40;46.20
11140;DHT22;5624;49.388;11.350;2023-05-07T12:49:08;21.40;46.40
11140;DHT22;5624;49.388;11.350;2023-05-07T12:51:35;21.70;46.40
11140;DHT22;5624;49.388;11.350;2023-05-07T12:54:00;22.00;46.70
11140;DHT22;5624;49.388;11.350;2023-05-07T12:56:26;22.10;44.90
11140;DHT22;5624;49.388;11.350;2023-05-07T12:58:51;22.00;43.70
11140;DHT22;5624;49.388;11.350;2023-05-07T13:01:22;21.70;45.10
11140;DHT22;5624;49.388;11.350;2023-05-07T13:03:54;21.70;45.90
11140;DHT22;5624;49.388;11.350;2023-05-07T13:06:19;21.80;45.00
11140;DHT22;5624;49.388;11.350;2023-05-07T13:08:45;22.10;44.50
11140;DHT22;5624;49.388;11.350;2023-05-07T13:11:12;22.30;46.30
11140;DHT22;5624;49.388;11.350;2023-05-07T13:13:40;22.30;45.50
11140;DHT22;5624;49.388;11.350;2023-05-07T13:16:07;22.30;43.80
11140;DHT22;5624;49.388;11.350;2023-05-07T13:18:33;22.30;44.20
11140;DHT22;5624;49.388;11.350;2023-05-07T13:21:00;22.40;45.20
11140;DHT22;5624;49.388;11.350;2023-05-07T13:23:26;22.50;44.10
11140;DHT22;5624;49.388;11.350;2023-05-07T13:25:52;22.20;44.30
11140;DHT22;5624;49.388;11.350;2023-05-07T13:28:19;21.90;45.50
11140;DHT22;5624;49.388;11.350;2023-05-07T13:30:46;21.70;45.70
11140;DHT22;5624;49.388;11.350;2023-05-07T13:33:12;21.40;47.10
11140;DHT22;5624;49.388;11.350;2023-05-07T13:35:37;21.20;46.50
11140;DHT22;5624;49.388;11.350;2023-05-07T13:38:04;21.10;48.20
11140;DHT22;5624;49.388;11.350;2023-05-07T13:40:30;21.00;47.50
11140;DHT22;5624;49.388;11.350;2023-05-07T13:42:57;20.70;47.80
11140;DHT22;5624;49.388;11.350;2023-05-07T13:45:26;20.70;47.60
11140;DHT22;5624;49.388;11.350;2023-05-07T13:47:55;20.60;47.40
11140;DHT22;5624;49.388;11.350;2023-05-07T13:50:21;20.50;46.60
11140;DHT22;5624;49.388;11.350;2023-05-07T13:52:47;20.40;49.00
11140;DHT22;5624;49.388;11.350;2023-05-07T13:55:20;20.50;49.00
11140;DHT22;5624;49.388;11.350;2023-05-07T13:57:46;20.40;49.40
11140;DHT22;5624;49.388;11.350;2023-05-07T14:00:13;20.60;49.90
11140;DHT22;5624;49.388;11.350;2023-05-07T14:02:39;20.80;50.40
11140;DHT22;5624;49.388;11.350;2023-05-07T14:05:06;21.10;48.70
11140;DHT22;5624;49.388;11.350;2023-05-07T14:07:31;21.30;49.50
11140;DHT22;5624;49.388;11.350;2023-05-07T14:09:57;21.50;49.00
11140;DHT22;5624;49.388;11.350;2023-05-07T14:12:23;21.70;49.10
11140;DHT22;5624;49.388;11.350;2023-05-07T14:14:48;21.80;47.10
11140;DHT22;5624;49.388;11.350;2023-05-07T14:17:16;21.90;48.30
11140;DHT22;5624;49.388;11.350;2023-05-07T14:19:42;22.10;47.40
11140;DHT22;5624;49.388;11.350;2023-05-07T14:22:08;22.10;47.60
11140;DHT22;5624;49.388;11.350;2023-05-07T14:24:34;22.20;47.50
11140;DHT22;5624;49.388;11.350;2023-05-07T14:27:00;21.90;47.10
11140;DHT22;5624;49.388;11.350;2023-05-07T14:29:25;21.70;47.20
11140;DHT22;5624;49.388;11.350;2023-05-07T14:31:51;21.40;48.70
11140;DHT22;5624;49.388;11.350;2023-05-07T14:34:16;21.20;48.00
11140;DHT22;5624;49.388;11.350;2023-05-07T14:36:42;21.00;47.60
11140;DHT22;5624;49.388;11.350;2023-05-07T14:39:09;20.90;47.70
11140;DHT22;5624;49.388;11.350;2023-05-07T14:41:35;20.90;47.90
11140;DHT22;5624;49.388;11.350;2023-05-07T14:44:01;20.90;47.50
11140;DHT22;5624;49.388;11.350;2023-05-07T14:46:29;20.80;48.60
11140;DHT22;5624;49.388;11.350;2023-05-07T14:48:55;20.80;48.20
11140;DHT22;5624;49.388;11.350;2023-05-07T14:51:21;20.90;48.40
11140;DHT22;5624;49.388;11.350;2023-05-07T14:53:47;21.00;48.80
11140;DHT22;5624;49.388;11.350;2023-05-07T14:56:12;21.00;48.80
11140;DHT22;5624;49.388;11.350;2023-05-07T14:58:38;21.20;47.70
11140;DHT22;5624;49.388;11.350;2023-05-07T15:01:04;21.30;47.40
11140;DHT22;5624;49.388;11.350;2023-05-07T15:03:30;21.40;47.10
11140;DHT22;5624;49.388;11.350;2023-05-07T15:05:56;21.20;48.00
11140;DHT22;5624;49.388;11.350;2023-05-07T15:08:21;20.90;48.90
11140;DHT22;5624;49.388;11.350;2023-05-07T15:10:47;20.80;49.00
11140;DHT22;5624;49.388;11.350;2023-05-07T15:13:13;20.70;50.10
11140;DHT22;5624;49.388;11.350;2023-05-07T15:15:39;20.80;50.10
11140;DHT22;5624;49.388;11.350;2023-05-07T15:18:04;20.80;49.00
11140;DHT22;5624;49.388;11.350;2023-05-07T15:20:30;20.80;49.50
11140;DHT22;5624;49.388;11.350;2023-05-07T15:22:56;20.80;49.10
11140;DHT22;5624;49.388;11.350;2023-05-07T15:25:23;20.80;49.40
11140;DHT22;5624;49.388;11.350;2023-05-07T15:27:48;20.80;49.90
11140;DHT22;5624;49.388;11.350;2023-05-07T15:30:14;20.80;49.30
11140;DHT22;5624;49.388;11.350;2023-05-07T15:32:41;20.80;49.50
11140;DHT22;5624;49.388;11.350;2023-05-07T15:35:07;20.90;49.60
11140;DHT22;5624;49.388;11.350;2023-05-07T15:37:33;21.00;48.70
11140;DHT22;5624;49.388;11.350;2023-05-07T15:39:59;21.10;48.70
11140;DHT22;5624;49.388;11.350;2023-05-07T15:42:27;20.90;49.50
11140;DHT22;5624;49.388;11.350;2023-05-07T15:44:53;20.80;49.80
11140;DHT22;5624;49.388;11.350;2023-05-07T15:47:19;20.70;49.40